createdAt,value
2022-11-29T00:00:28.452Z,4.50
2022-11-29T00:03:32.934Z,4.50
2022-11-29T00:06:37.934Z,4.60
2022-11-29T00:09:42.017Z,4.60
2022-11-29T00:12:49.059Z,4.60
2022-11-29T00:15:53.147Z,4.60
2022-11-29T00:18:57.090Z,4.70
2022-11-29T00:22:02.001Z,4.70
2022-11-29T00:25:06.570Z,4.80
2022-11-29T00:28:10.812Z,4.80
2022-11-29T00:31:23.047Z,4.80
2022-11-29T00:34:27.309Z,4.90
2022-11-29T00:37:31.460Z,4.90
2022-11-29T00:40:35.931Z,4.90
2022-11-29T00:43:40.668Z,4.90
2022-11-29T00:46:44.851Z,4.90
2022-11-29T00:49:49.538Z,5.00
2022-11-29T00:52:53.620Z,5.00
2022-11-29T00:55:58.376Z,5.00
2022-11-29T00:59:02.740Z,5.00
2022-11-29T01:02:07.044Z,5.00
2022-11-29T01:05:11.816Z,5.00
2022-11-29T01:08:15.841Z,5.00
2022-11-29T01:11:24.755Z,5.00
2022-11-29T01:14:28.782Z,5.10
2022-11-29T01:17:35.357Z,5.10
2022-11-29T01:20:39.267Z,5.00
2022-11-29T01:23:44.017Z,5.10
2022-11-29T01:26:48.426Z,5.00
2022-11-29T01:29:52.699Z,5.00
2022-11-29T01:32:56.664Z,5.00
2022-11-29T01:36:00.733Z,5.00
2022-11-29T01:39:05.604Z,5.00
2022-11-29T01:42:13.129Z,5.00
2022-11-29T01:45:24.628Z,5.00
2022-11-29T01:48:30.681Z,5.00
2022-11-29T01:51:35.940Z,5.00
2022-11-29T01:54:45.199Z,5.00
2022-11-29T01:57:49.780Z,5.00
2022-11-29T02:00:54.099Z,4.90
2022-11-29T02:03:59.301Z,4.90
2022-11-29T02:07:03.142Z,4.90
2022-11-29T02:10:07.501Z,4.80
2022-11-29T02:13:20.261Z,4.80
2022-11-29T02:16:24.075Z,4.80
2022-11-29T02:19:34.745Z,4.90
2022-11-29T02:22:49.084Z,4.80
2022-11-29T02:26:00.540Z,4.80
2022-11-29T02:29:04.749Z,4.80
2022-11-29T02:32:27.779Z,4.80
2022-11-29T02:35:41.546Z,4.70
2022-11-29T02:39:04.790Z,4.60
2022-11-29T02:42:14.818Z,4.60
2022-11-29T02:45:51.506Z,4.50
2022-11-29T02:49:00.823Z,4.40
2022-11-29T02:52:07.430Z,4.40
2022-11-29T02:55:22.868Z,4.40
2022-11-29T02:58:46.151Z,4.30
2022-11-29T03:02:29.087Z,4.20
2022-11-29T03:05:51.300Z,4.10
2022-11-29T03:09:12.294Z,4.10
2022-11-29T03:12:26.740Z,4.00
2022-11-29T03:15:38.730Z,3.90
2022-11-29T03:19:02.121Z,3.70
2022-11-29T03:22:06.073Z,3.60
2022-11-29T03:25:19.382Z,3.60
2022-11-29T03:28:29.107Z,3.60
2022-11-29T03:31:51.986Z,3.60
2022-11-29T03:35:06.452Z,3.70
2022-11-29T03:38:29.766Z,3.80
2022-11-29T03:41:39.332Z,3.80
2022-11-29T03:44:52.580Z,3.90
2022-11-29T03:48:06.313Z,4.00
2022-11-29T03:51:20.040Z,4.10
2022-11-29T03:54:50.295Z,4.20
2022-11-29T03:58:12.453Z,4.20
2022-11-29T04:01:35.332Z,4.40
2022-11-29T04:04:46.348Z,4.40
2022-11-29T04:07:50.590Z,4.40
2022-11-29T04:11:22.845Z,4.40
2022-11-29T04:14:32.867Z,4.40
2022-11-29T04:17:50.089Z,4.50
2022-11-29T04:21:06.858Z,4.50
2022-11-29T04:24:26.548Z,4.50
2022-11-29T04:27:33.939Z,4.40
2022-11-29T04:30:58.281Z,4.40
2022-11-29T04:34:21.353Z,4.30
2022-11-29T04:37:40.976Z,4.30
2022-11-29T04:40:48.155Z,4.20
2022-11-29T04:44:12.278Z,4.20
2022-11-29T04:47:35.568Z,4.20
2022-11-29T04:50:55.383Z,4.20
2022-11-29T04:54:19.596Z,4.10
2022-11-29T04:57:36.276Z,4.10
2022-11-29T05:00:51.833Z,4.00
2022-11-29T05:04:08.676Z,3.90
2022-11-29T05:07:12.539Z,3.80
2022-11-29T05:10:25.939Z,3.70
2022-11-29T05:13:32.890Z,3.60
2022-11-29T05:16:37.307Z,3.50
2022-11-29T05:19:45.405Z,3.50
2022-11-29T05:23:08.981Z,3.40
2022-11-29T05:26:22.646Z,3.30
2022-11-29T05:29:36.392Z,3.30
2022-11-29T05:32:59.805Z,3.30
2022-11-29T05:36:14.860Z,3.20
2022-11-29T05:39:22.511Z,3.20
2022-11-29T05:42:32.668Z,3.20
2022-11-29T05:45:55.592Z,3.10
2022-11-29T05:49:23.306Z,3.10
2022-11-29T05:52:30.385Z,3.10
2022-11-29T05:55:45.591Z,3.00
2022-11-29T05:58:56.363Z,3.00
2022-11-29T06:02:00.531Z,2.90
2022-11-29T06:05:06.599Z,2.90
2022-11-29T06:08:10.537Z,2.90
2022-11-29T06:11:21.951Z,2.90
2022-11-29T06:14:37.735Z,2.90
2022-11-29T06:17:55.138Z,2.90
2022-11-29T06:21:02.648Z,2.90
2022-11-29T06:24:26.201Z,2.90
2022-11-29T06:27:53.647Z,2.80
2022-11-29T06:31:02.980Z,2.80
2022-11-29T06:34:10.400Z,2.80
2022-11-29T06:37:44.436Z,2.90
2022-11-29T06:40:49.755Z,3.00
2022-11-29T06:43:54.294Z,3.10
2022-11-29T06:47:10.671Z,3.20
2022-11-29T06:50:33.574Z,3.20
2022-11-29T06:53:37.891Z,3.30
2022-11-29T06:56:49.024Z,3.30
2022-11-29T06:59:56.357Z,3.40
2022-11-29T07:03:00.756Z,3.50
2022-11-29T07:06:11.289Z,3.50
2022-11-29T07:09:17.668Z,3.50
2022-11-29T07:12:21.967Z,3.60
2022-11-29T07:15:28.082Z,3.60
2022-11-29T07:18:38.195Z,3.70
2022-11-29T07:21:51.834Z,3.60
2022-11-29T07:25:02.117Z,3.70
2022-11-29T07:28:06.280Z,3.80
2022-11-29T07:31:20.451Z,3.80
2022-11-29T07:34:30.460Z,3.90
2022-11-29T07:37:37.765Z,3.90
2022-11-29T07:40:48.942Z,3.90
2022-11-29T07:44:19.654Z,3.90
2022-11-29T07:47:23.583Z,4.00
2022-11-29T07:50:28.417Z,4.00
2022-11-29T07:53:34.045Z,4.00
2022-11-29T07:56:38.358Z,4.10
2022-11-29T07:59:43.022Z,4.10
2022-11-29T08:02:48.076Z,4.10
2022-11-29T08:05:52.151Z,4.20
2022-11-29T08:08:59.800Z,4.20
2022-11-29T08:12:04.544Z,4.20
2022-11-29T08:15:09.330Z,4.20
2022-11-29T08:18:15.175Z,4.30
2022-11-29T08:21:19.664Z,4.30
2022-11-29T08:24:23.852Z,4.30
2022-11-29T08:27:28.001Z,4.30
2022-11-29T08:30:31.872Z,4.30
2022-11-29T08:33:37.556Z,4.40
2022-11-29T08:36:42.078Z,4.40
2022-11-29T08:39:46.112Z,4.50
2022-11-29T08:42:50.634Z,4.50
2022-11-29T08:45:54.607Z,4.50
2022-11-29T08:48:59.823Z,4.60
2022-11-29T08:52:23.270Z,4.60
2022-11-29T08:55:31.246Z,4.60
2022-11-29T08:58:35.557Z,4.70
2022-11-29T09:01:39.771Z,4.70
2022-11-29T09:04:43.768Z,4.70
2022-11-29T09:07:48.112Z,4.70
2022-11-29T09:10:53.233Z,4.70
2022-11-29T09:13:58.925Z,4.70
2022-11-29T09:17:03.200Z,4.70
2022-11-29T09:20:08.270Z,4.80
2022-11-29T09:23:13.138Z,4.80
2022-11-29T09:26:18.908Z,4.80
2022-11-29T09:29:23.309Z,4.80
2022-11-29T09:32:27.396Z,4.80
2022-11-29T09:35:31.419Z,4.90
2022-11-29T09:38:35.545Z,4.90
2022-11-29T09:41:48.616Z,4.90
2022-11-29T09:45:02.328Z,4.90
2022-11-29T09:48:18.022Z,5.00
2022-11-29T09:51:31.394Z,4.90
2022-11-29T09:54:54.525Z,4.90
2022-11-29T09:57:59.391Z,4.90
2022-11-29T10:01:06.319Z,5.00
2022-11-29T10:04:19.007Z,5.00
2022-11-29T10:07:39.193Z,5.00
2022-11-29T10:10:46.316Z,5.00
2022-11-29T10:13:54.227Z,5.00
2022-11-29T10:17:04.500Z,5.00
2022-11-29T10:20:15.569Z,5.10
2022-11-29T10:23:34.375Z,5.10
2022-11-29T10:26:38.830Z,5.10
2022-11-29T10:29:43.433Z,5.10
2022-11-29T10:32:52.116Z,5.20
2022-11-29T10:35:58.379Z,5.10
2022-11-29T10:39:25.738Z,5.20
2022-11-29T10:42:48.828Z,5.20
2022-11-29T10:45:56.270Z,5.20
2022-11-29T10:49:02.857Z,5.30
2022-11-29T10:52:16.669Z,5.30
2022-11-29T10:55:22.068Z,5.30
2022-11-29T10:58:29.039Z,5.30
2022-11-29T11:01:36.857Z,5.40
2022-11-29T11:04:46.116Z,5.40
2022-11-29T11:07:57.324Z,5.40
2022-11-29T11:11:03.053Z,5.40
2022-11-29T11:14:21.046Z,5.40
2022-11-29T11:17:32.758Z,5.40
2022-11-29T11:20:39.895Z,5.40
2022-11-29T11:23:54.845Z,5.50
2022-11-29T11:26:59.969Z,5.50
2022-11-29T11:30:05.429Z,5.40
2022-11-29T11:33:20.582Z,5.40
2022-11-29T11:36:26.302Z,5.50
2022-11-29T11:39:30.476Z,5.50
2022-11-29T11:42:37.979Z,5.50
2022-11-29T11:45:42.401Z,5.50
2022-11-29T11:48:46.920Z,5.50
2022-11-29T11:51:51.320Z,5.50
2022-11-29T11:54:57.961Z,5.60
2022-11-29T11:58:09.708Z,5.60
2022-11-29T12:01:27.147Z,5.60
2022-11-29T12:04:34.771Z,5.60
2022-11-29T12:08:09.810Z,5.60
2022-11-29T12:11:15.869Z,5.60
2022-11-29T12:14:23.977Z,5.60
2022-11-29T12:17:49.086Z,5.70
2022-11-29T12:20:53.136Z,5.50
2022-11-29T12:23:57.116Z,5.70
2022-11-29T12:27:03.733Z,5.70
2022-11-29T12:30:12.545Z,5.70
2022-11-29T12:33:28.854Z,5.80
2022-11-29T12:36:48.296Z,5.80
2022-11-29T12:40:11.186Z,5.80
2022-11-29T12:43:18.655Z,5.90
2022-11-29T12:46:27.520Z,5.90
2022-11-29T12:49:31.912Z,5.80
2022-11-29T12:52:44.768Z,5.80
2022-11-29T12:56:07.672Z,5.80
2022-11-29T12:59:36.845Z,5.70
2022-11-29T13:03:00.117Z,5.70
2022-11-29T13:06:07.738Z,5.60
2022-11-29T13:09:38.750Z,5.50
2022-11-29T13:12:47.266Z,5.50
2022-11-29T13:16:05.881Z,5.40
2022-11-29T13:19:26.484Z,5.30
2022-11-29T13:22:33.552Z,5.30
2022-11-29T13:25:38.573Z,5.20
2022-11-29T13:28:44.339Z,5.20
2022-11-29T13:31:48.670Z,5.20
2022-11-29T13:34:55.286Z,5.10
2022-11-29T13:38:14.792Z,5.20
2022-11-29T13:41:37.795Z,5.20
2022-11-29T13:44:47.947Z,5.20
2022-11-29T13:47:53.941Z,5.20
2022-11-29T13:50:58.077Z,5.30
2022-11-29T13:54:03.517Z,5.20
2022-11-29T13:57:09.126Z,5.20
2022-11-29T14:00:32.840Z,5.10
2022-11-29T14:03:41.885Z,4.90
2022-11-29T14:06:48.173Z,4.90
2022-11-29T14:10:00.911Z,4.80
2022-11-29T14:13:05.151Z,4.70
2022-11-29T14:16:17.513Z,4.60
2022-11-29T14:19:22.035Z,4.60
2022-11-29T14:22:26.553Z,4.50
2022-11-29T14:25:53.943Z,4.50
2022-11-29T14:28:59.014Z,4.40
2022-11-29T14:32:03.341Z,4.40
2022-11-29T14:35:10.536Z,4.30
2022-11-29T14:38:29.233Z,4.40
2022-11-29T14:41:41.361Z,4.30
2022-11-29T14:44:53.182Z,4.30
2022-11-29T14:47:57.417Z,4.30
2022-11-29T14:51:28.204Z,4.20
2022-11-29T14:54:33.656Z,4.20
2022-11-29T14:57:47.088Z,4.20
2022-11-29T15:00:57.279Z,4.10
2022-11-29T15:04:04.627Z,4.10
2022-11-29T15:07:14.419Z,4.10
2022-11-29T15:10:22.230Z,4.10
2022-11-29T15:13:31.884Z,4.00
2022-11-29T15:16:47.619Z,3.90
2022-11-29T15:19:52.240Z,3.90
2022-11-29T15:22:59.496Z,3.90
2022-11-29T15:26:04.005Z,3.80
2022-11-29T15:29:14.769Z,3.80
2022-11-29T15:32:25.591Z,3.70
2022-11-29T15:35:30.075Z,3.60
2022-11-29T15:38:51.328Z,3.60
2022-11-29T15:41:59.772Z,3.60
2022-11-29T15:45:22.428Z,3.50
2022-11-29T15:48:28.174Z,3.50
2022-11-29T15:51:35.698Z,3.40
2022-11-29T15:54:44.294Z,3.30
2022-11-29T15:57:50.883Z,3.20
2022-11-29T16:00:55.628Z,3.30
2022-11-29T16:04:00.404Z,3.20
2022-11-29T16:07:05.294Z,3.20
2022-11-29T16:10:14.564Z,3.20
2022-11-29T16:13:27.879Z,3.10
2022-11-29T16:16:35.559Z,3.10
2022-11-29T16:19:41.267Z,3.10
2022-11-29T16:22:45.415Z,3.00
2022-11-29T16:25:55.623Z,3.00
2022-11-29T16:29:00.304Z,3.00
2022-11-29T16:32:15.496Z,3.00
2022-11-29T16:35:24.780Z,3.00
2022-11-29T16:38:29.306Z,2.90
2022-11-29T16:41:35.144Z,2.90
2022-11-29T16:44:39.470Z,3.00
2022-11-29T16:47:47.951Z,3.00
2022-11-29T16:51:10.889Z,3.00
2022-11-29T16:54:19.216Z,3.00
2022-11-29T16:57:23.982Z,3.10
2022-11-29T17:00:32.169Z,3.10
2022-11-29T17:03:36.314Z,3.20
2022-11-29T17:06:40.824Z,3.20
2022-11-29T17:09:45.151Z,3.30
2022-11-29T17:12:50.243Z,3.30
2022-11-29T17:15:54.512Z,3.30
2022-11-29T17:18:58.293Z,3.30
2022-11-29T17:22:03.237Z,3.40
2022-11-29T17:25:07.368Z,3.40
2022-11-29T17:28:12.416Z,3.40
2022-11-29T17:31:23.792Z,3.50
2022-11-29T17:34:28.450Z,3.50
2022-11-29T17:37:32.515Z,3.60
2022-11-29T17:40:38.172Z,3.70
2022-11-29T17:43:42.295Z,3.70
2022-11-29T17:46:46.258Z,3.70
2022-11-29T17:49:50.645Z,3.80
2022-11-29T17:52:54.929Z,3.90
2022-11-29T17:56:03.490Z,3.90
2022-11-29T17:59:08.026Z,3.90
2022-11-29T18:02:12.472Z,3.90
2022-11-29T18:05:17.525Z,3.90
2022-11-29T18:08:21.902Z,3.90
2022-11-29T18:11:46.336Z,3.90
2022-11-29T18:14:50.909Z,3.90
2022-11-29T18:17:55.352Z,4.00
2022-11-29T18:21:00.205Z,4.00
2022-11-29T18:24:05.489Z,4.10
2022-11-29T18:27:09.591Z,4.00
2022-11-29T18:30:14.391Z,4.10
2022-11-29T18:33:18.532Z,4.20
2022-11-29T18:36:30.180Z,4.20
2022-11-29T18:39:34.901Z,4.20
2022-11-29T18:42:39.107Z,4.20
2022-11-29T18:45:43.344Z,4.30
2022-11-29T18:48:47.984Z,4.40
2022-11-29T18:51:52.367Z,4.40
2022-11-29T18:54:56.980Z,4.40
2022-11-29T18:58:01.946Z,4.40
2022-11-29T19:01:07.914Z,4.40
2022-11-29T19:04:14.092Z,4.40
2022-11-29T19:07:18.793Z,4.30
2022-11-29T19:10:23.273Z,4.30
2022-11-29T19:13:11.972Z,4.30
2022-11-29T19:16:18.261Z,4.40
2022-11-29T19:19:23.174Z,4.40
2022-11-29T19:22:27.390Z,4.40
2022-11-29T19:25:34.038Z,4.30
2022-11-29T19:30:41.265Z,4.40
2022-11-29T19:33:46.317Z,4.30
2022-11-29T19:36:50.763Z,4.20
2022-11-29T19:39:55.263Z,4.20
2022-11-29T19:42:59.488Z,4.30
2022-11-29T19:46:10.456Z,4.20
2022-11-29T19:49:15.031Z,4.20
2022-11-29T19:52:19.096Z,4.20
2022-11-29T19:55:23.361Z,4.10
2022-11-29T20:01:58.718Z,4.20
2022-11-29T20:05:03.155Z,4.20
2022-11-29T20:08:07.393Z,4.20
2022-11-29T20:11:11.524Z,4.20
2022-11-29T20:14:15.860Z,4.20
2022-11-29T20:17:20.148Z,4.30
2022-11-29T20:20:26.683Z,4.20
2022-11-29T20:23:31.108Z,4.30
2022-11-29T20:26:36.569Z,4.20
2022-11-29T20:29:40.970Z,4.20
2022-11-29T20:32:45.508Z,4.20
2022-11-29T20:36:16.063Z,4.20
2022-11-29T20:39:29.485Z,4.30
2022-11-29T20:42:39.321Z,4.20
2022-11-29T20:45:43.556Z,4.20
2022-11-29T20:48:47.960Z,4.20
2022-11-29T20:51:57.804Z,4.20
2022-11-29T20:55:02.301Z,4.20
2022-11-29T20:58:06.712Z,4.20
2022-11-29T21:01:11.304Z,4.30
2022-11-29T21:04:21.604Z,4.30
2022-11-29T21:07:27.524Z,4.30
2022-11-29T21:10:32.437Z,4.30
2022-11-29T21:13:37.052Z,4.30
2022-11-29T21:16:41.545Z,4.30
2022-11-29T21:19:45.776Z,4.30
2022-11-29T21:22:53.131Z,4.30
2022-11-29T21:26:00.700Z,4.30
2022-11-29T21:29:11.424Z,4.30
2022-11-29T21:32:22.922Z,4.30
2022-11-29T21:35:27.469Z,4.30
2022-11-29T21:38:32.100Z,4.30
2022-11-29T21:41:36.525Z,4.30
2022-11-29T21:44:40.678Z,4.30
2022-11-29T21:47:45.703Z,4.30
2022-11-29T21:50:50.304Z,4.30
2022-11-29T21:53:54.630Z,4.30
2022-11-29T21:56:59.636Z,4.30
2022-11-29T22:00:05.226Z,4.20
2022-11-29T22:03:10.303Z,4.30
2022-11-29T22:06:20.198Z,4.30
2022-11-29T22:09:24.483Z,4.30
2022-11-29T22:12:34.392Z,4.30
2022-11-29T22:15:39.682Z,4.20
2022-11-29T22:18:44.052Z,4.20
2022-11-29T22:21:49.831Z,4.20
2022-11-29T22:24:54.482Z,4.20
2022-11-29T22:28:01.214Z,4.20
2022-11-29T22:31:07.096Z,4.20
2022-11-29T22:34:11.476Z,4.20
2022-11-29T22:37:15.650Z,4.20
2022-11-29T22:40:19.568Z,4.20
2022-11-29T22:43:25.244Z,4.20
2022-11-29T22:46:29.415Z,4.20
2022-11-29T22:49:34.357Z,4.20
2022-11-29T22:52:38.592Z,4.20
2022-11-29T22:55:42.659Z,4.20
2022-11-29T22:58:47.011Z,4.10
2022-11-29T23:01:51.173Z,4.10
2022-11-29T23:04:55.637Z,4.10
2022-11-29T23:08:00.593Z,4.10
2022-11-29T23:11:05.963Z,4.10
2022-11-29T23:14:10.616Z,4.00
2022-11-29T23:17:14.884Z,4.00
2022-11-29T23:20:19.069Z,4.00
2022-11-29T23:23:23.174Z,4.00
2022-11-29T23:26:39.461Z,3.90
2022-11-29T23:29:43.901Z,4.00
2022-11-29T23:32:47.987Z,4.00
2022-11-29T23:35:59.117Z,3.90
2022-11-29T23:39:04.119Z,3.90
2022-11-29T23:42:08.860Z,3.90
2022-11-29T23:45:13.140Z,3.90
2022-11-29T23:48:17.928Z,3.90
2022-11-29T23:51:22.800Z,3.90
2022-11-29T23:54:26.760Z,3.90
2022-11-29T23:57:31.455Z,3.90
